createdAt,value
2018-12-20T00:01:22.394Z,98329.00
2018-12-20T00:03:51.352Z,98332.00
2018-12-20T00:06:20.262Z,98334.00
2018-12-20T00:08:49.315Z,98320.00
2018-12-20T00:11:18.558Z,98324.00
2018-12-20T00:13:47.603Z,98321.00
2018-12-20T00:16:16.442Z,98326.00
2018-12-20T00:18:45.386Z,98303.00
2018-12-20T00:21:14.350Z,98331.00
2018-12-20T00:23:43.279Z,98329.00
2018-12-20T00:26:12.286Z,98332.00
2018-12-20T00:28:41.393Z,98330.00
2018-12-20T00:31:13.544Z,98333.00
2018-12-20T00:33:41.069Z,98327.00
2018-12-20T00:36:10.169Z,98325.00
2018-12-20T00:38:39.104Z,98342.00
2018-12-20T00:41:07.922Z,98335.00
2018-12-20T00:43:36.808Z,98343.00
2018-12-20T00:46:05.775Z,98339.00
2018-12-20T00:48:34.743Z,98337.00
2018-12-20T00:51:03.826Z,98336.00
2018-12-20T00:53:32.950Z,98342.00
2018-12-20T00:56:02.003Z,98342.00
2018-12-20T00:58:30.829Z,98341.00
2018-12-20T01:00:59.754Z,98347.00
2018-12-20T01:03:28.669Z,98339.00
2018-12-20T01:05:57.638Z,98347.00
2018-12-20T01:08:26.638Z,98346.00
2018-12-20T01:10:55.660Z,98342.00
2018-12-20T01:13:24.782Z,98353.00
2018-12-20T01:15:53.648Z,98343.00
2018-12-20T01:18:22.457Z,98353.00
2018-12-20T01:20:51.401Z,98352.00
2018-12-20T01:23:20.378Z,98358.00
2018-12-20T01:25:49.266Z,98360.00
2018-12-20T01:28:18.231Z,98358.00
2018-12-20T01:30:47.156Z,98358.00
2018-12-20T01:33:16.042Z,98362.00
2018-12-20T01:35:44.858Z,98366.00
2018-12-20T01:38:13.843Z,98353.00
2018-12-20T01:40:42.731Z,98367.00
2018-12-20T01:43:11.536Z,98373.00
2018-12-20T01:45:40.441Z,98369.00
2018-12-20T01:48:09.544Z,98368.00
2018-12-20T01:50:38.472Z,98370.00
2018-12-20T01:53:07.281Z,98372.00
2018-12-20T01:55:36.149Z,98380.00
2018-12-20T01:58:05.108Z,98378.00
2018-12-20T02:00:34.002Z,98376.00
2018-12-20T02:03:02.806Z,98366.00
2018-12-20T02:05:31.703Z,98376.00
2018-12-20T02:08:00.543Z,98373.00
2018-12-20T02:10:29.355Z,98371.00
2018-12-20T02:12:58.203Z,98371.00
2018-12-20T02:15:27.229Z,98380.00
2018-12-20T02:17:56.153Z,98373.00
2018-12-20T02:20:24.969Z,98371.00
2018-12-20T02:22:53.864Z,98376.00
2018-12-20T02:25:23.051Z,98369.00
2018-12-20T02:27:52.015Z,98378.00
2018-12-20T02:30:20.889Z,98365.00
2018-12-20T02:32:49.843Z,98370.00
2018-12-20T02:35:18.740Z,98358.00
2018-12-20T02:37:47.679Z,98369.00
2018-12-20T02:40:16.605Z,98366.00
2018-12-20T02:42:45.433Z,98369.00
2018-12-20T02:45:14.303Z,98363.00
2018-12-20T02:47:43.098Z,98351.00
2018-12-20T02:50:12.301Z,98354.00
2018-12-20T02:52:41.503Z,98358.00
2018-12-20T02:55:10.346Z,98358.00
2018-12-20T02:57:39.206Z,98360.00
2018-12-20T03:00:08.320Z,98355.00
2018-12-20T03:02:37.321Z,98366.00
2018-12-20T03:05:06.212Z,98359.00
2018-12-20T03:07:35.077Z,98361.00
2018-12-20T03:10:03.949Z,98354.00
2018-12-20T03:12:32.753Z,98352.00
2018-12-20T03:15:01.853Z,98354.00
2018-12-20T03:17:30.918Z,98359.00
2018-12-20T03:20:00.110Z,98351.00
2018-12-20T03:22:29.079Z,98358.00
2018-12-20T03:24:58.123Z,98343.00
2018-12-20T03:27:27.246Z,98345.00
2018-12-20T03:29:56.359Z,98353.00
2018-12-20T03:32:25.271Z,98358.00
2018-12-20T03:34:54.180Z,98346.00
2018-12-20T03:37:23.187Z,98354.00
2018-12-20T03:39:52.034Z,98349.00
2018-12-20T03:42:20.818Z,98335.00
2018-12-20T03:44:49.785Z,98335.00
2018-12-20T03:47:18.754Z,98335.00
2018-12-20T03:49:47.532Z,98335.00
2018-12-20T03:52:16.536Z,98340.00
2018-12-20T03:54:45.728Z,98341.00
2018-12-20T03:57:14.656Z,98335.00
2018-12-20T03:59:43.566Z,98343.00
2018-12-20T04:02:12.650Z,98340.00
2018-12-20T04:04:41.749Z,98344.00
2018-12-20T04:07:10.726Z,98348.00
2018-12-20T04:09:39.753Z,98346.00
2018-12-20T04:12:08.712Z,98353.00
2018-12-20T04:14:37.641Z,98337.00
2018-12-20T04:17:06.523Z,98353.00
2018-12-20T04:19:35.436Z,98346.00
2018-12-20T04:22:04.292Z,98350.00
2018-12-20T04:24:33.106Z,98355.00
2018-12-20T04:27:01.994Z,98351.00
2018-12-20T04:29:30.956Z,98358.00
2018-12-20T04:31:59.800Z,98357.00
2018-12-20T04:34:28.659Z,98347.00
2018-12-20T04:36:57.619Z,98356.00
2018-12-20T04:39:26.457Z,98360.00
2018-12-20T04:41:55.241Z,98345.00
2018-12-20T04:44:24.020Z,98349.00
2018-12-20T04:46:52.965Z,98359.00
2018-12-20T04:49:21.928Z,98371.00
2018-12-20T04:51:50.917Z,98354.00
2018-12-20T04:54:19.832Z,98357.00
2018-12-20T04:56:48.694Z,98361.00
2018-12-20T04:59:17.478Z,98368.00
2018-12-20T05:01:46.369Z,98364.00
2018-12-20T05:04:15.381Z,98376.00
2018-12-20T05:06:44.612Z,98379.00
2018-12-20T05:09:13.582Z,98379.00
2018-12-20T05:11:42.535Z,98371.00
2018-12-20T05:14:11.483Z,98377.00
2018-12-20T05:16:40.528Z,98363.00
2018-12-20T05:19:09.576Z,98372.00
2018-12-20T05:21:38.580Z,98376.00
2018-12-20T05:24:07.537Z,98374.00
2018-12-20T05:26:36.342Z,98381.00
2018-12-20T05:29:05.230Z,98393.00
2018-12-20T05:31:34.102Z,98371.00
2018-12-20T05:34:03.313Z,98380.00
2018-12-20T05:36:32.196Z,98373.00
2018-12-20T05:39:01.166Z,98379.00
2018-12-20T05:41:30.115Z,98382.00
2018-12-20T05:43:59.241Z,98384.00
2018-12-20T05:46:28.121Z,98392.00
2018-12-20T05:48:57.185Z,98379.00
2018-12-20T05:51:26.287Z,98380.00
2018-12-20T05:53:55.243Z,98382.00
2018-12-20T05:56:24.322Z,98379.00
2018-12-20T05:58:53.268Z,98375.00
2018-12-20T06:01:22.131Z,98382.00
2018-12-20T06:03:50.923Z,98380.00
2018-12-20T06:06:19.849Z,98376.00
2018-12-20T06:08:48.700Z,98385.00
2018-12-20T06:11:17.549Z,98373.00
2018-12-20T06:13:46.274Z,98390.00
2018-12-20T06:16:15.293Z,98376.00
2018-12-20T06:18:44.386Z,98377.00
2018-12-20T06:21:13.425Z,98394.00
2018-12-20T06:23:42.211Z,98395.00
2018-12-20T06:26:11.098Z,98397.00
2018-12-20T06:28:39.928Z,98400.00
2018-12-20T06:31:08.738Z,98404.00
2018-12-20T06:33:38.304Z,98398.00
2018-12-20T06:36:07.128Z,98389.00
2018-12-20T06:38:35.914Z,98395.00
2018-12-20T06:41:04.692Z,98391.00
2018-12-20T06:43:33.518Z,98401.00
2018-12-20T06:46:02.325Z,98400.00
2018-12-20T06:48:31.122Z,98401.00
2018-12-20T06:50:59.974Z,98405.00
2018-12-20T06:53:28.795Z,98405.00
2018-12-20T06:55:57.583Z,98413.00
2018-12-20T06:58:26.372Z,98412.00
2018-12-20T07:00:55.179Z,98415.00
2018-12-20T07:03:24.042Z,98405.00
2018-12-20T07:05:52.829Z,98400.00
2018-12-20T07:08:21.670Z,98414.00
2018-12-20T07:10:50.495Z,98410.00
2018-12-20T07:13:19.324Z,98416.00
2018-12-20T07:15:48.106Z,98409.00
2018-12-20T07:18:17.003Z,98415.00
2018-12-20T07:20:45.851Z,98422.00
2018-12-20T07:23:15.047Z,98410.00
2018-12-20T07:25:43.820Z,98422.00
2018-12-20T07:28:12.676Z,98422.00
2018-12-20T07:30:41.505Z,98427.00
2018-12-20T07:33:10.306Z,98424.00
2018-12-20T07:35:39.120Z,98428.00
2018-12-20T07:38:07.966Z,98424.00
2018-12-20T07:40:38.149Z,98417.00
2018-12-20T07:43:07.034Z,98414.00
2018-12-20T07:45:35.718Z,98431.00
2018-12-20T07:48:04.555Z,98428.00
2018-12-20T07:50:33.339Z,98424.00
2018-12-20T07:53:02.200Z,98432.00
2018-12-20T07:55:31.024Z,98432.00
2018-12-20T07:57:59.829Z,98430.00
2018-12-20T08:00:32.828Z,98438.00
2018-12-20T08:03:01.814Z,98432.00
2018-12-20T08:05:30.658Z,98441.00
2018-12-20T08:07:59.498Z,98445.00
2018-12-20T08:10:28.330Z,98437.00
2018-12-20T08:12:57.164Z,98442.00
2018-12-20T08:15:25.961Z,98445.00
2018-12-20T08:17:54.712Z,98445.00
2018-12-20T08:20:23.568Z,98446.00
2018-12-20T08:22:52.392Z,98454.00
2018-12-20T08:25:21.236Z,98445.00
2018-12-20T08:27:49.992Z,98447.00
2018-12-20T08:30:18.862Z,98452.00
2018-12-20T08:32:47.692Z,98450.00
2018-12-20T08:35:16.502Z,98446.00
2018-12-20T08:37:45.315Z,98447.00
2018-12-20T08:40:14.132Z,98446.00
2018-12-20T08:42:42.947Z,98456.00
2018-12-20T08:45:11.736Z,98450.00
2018-12-20T08:47:40.592Z,98460.00
2018-12-20T08:50:09.441Z,98461.00
2018-12-20T08:52:38.281Z,98444.00
2018-12-20T08:55:07.085Z,98447.00
2018-12-20T08:57:35.919Z,98448.00
2018-12-20T09:00:05.076Z,98461.00
2018-12-20T09:02:33.854Z,98453.00
2018-12-20T09:05:02.779Z,98458.00
2018-12-20T09:07:31.655Z,98455.00
2018-12-20T09:10:00.456Z,98458.00
2018-12-20T09:12:29.240Z,98452.00
2018-12-20T09:14:58.078Z,98460.00
2018-12-20T09:17:26.936Z,98457.00
2018-12-20T09:19:55.722Z,98468.00
2018-12-20T09:22:24.553Z,98462.00
2018-12-20T09:24:53.385Z,98468.00
2018-12-20T09:27:22.198Z,98472.00
2018-12-20T09:29:50.990Z,98462.00
2018-12-20T09:32:19.863Z,98471.00
2018-12-20T09:34:48.716Z,98467.00
2018-12-20T09:37:17.498Z,98470.00
2018-12-20T09:39:46.275Z,98471.00
2018-12-20T09:42:15.172Z,98475.00
2018-12-20T09:44:43.983Z,98470.00
2018-12-20T09:47:18.049Z,98463.00
2018-12-20T09:49:46.921Z,98461.00
2018-12-20T09:52:15.798Z,98458.00
2018-12-20T09:54:44.561Z,98447.00
2018-12-20T09:57:13.389Z,98452.00
2018-12-20T09:59:42.240Z,98465.00
2018-12-20T10:02:11.191Z,98454.00
2018-12-20T10:04:39.971Z,98468.00
2018-12-20T10:07:08.756Z,98461.00
2018-12-20T10:09:37.778Z,98458.00
2018-12-20T10:12:06.612Z,98468.00
2018-12-20T10:14:35.400Z,98463.00
2018-12-20T10:17:04.280Z,98465.00
2018-12-20T10:19:33.137Z,98465.00
2018-12-20T10:22:01.935Z,98466.00
2018-12-20T10:24:30.698Z,98471.00
2018-12-20T10:26:59.568Z,98464.00
2018-12-20T10:29:28.504Z,98461.00
2018-12-20T10:31:57.316Z,98464.00
2018-12-20T10:34:26.084Z,98459.00
2018-12-20T10:36:54.932Z,98461.00
2018-12-20T10:39:23.749Z,98462.00
2018-12-20T10:41:52.545Z,98455.00
2018-12-20T10:44:21.378Z,98452.00
2018-12-20T10:46:50.238Z,98455.00
2018-12-20T10:49:19.095Z,98454.00
2018-12-20T10:51:47.863Z,98454.00
2018-12-20T10:54:16.829Z,98451.00
2018-12-20T10:56:45.659Z,98447.00
2018-12-20T10:59:14.468Z,98454.00
2018-12-20T11:01:49.846Z,98455.00
2018-12-20T11:04:33.861Z,98452.00
2018-12-20T11:07:07.965Z,98450.00
2018-12-20T11:09:42.154Z,98455.00
2018-12-20T11:12:12.953Z,98434.00
2018-12-20T11:14:41.902Z,98444.00
2018-12-20T11:17:10.698Z,98436.00
2018-12-20T11:19:39.507Z,98441.00
2018-12-20T11:22:08.352Z,98440.00
2018-12-20T11:24:37.218Z,98430.00
2018-12-20T11:27:06.040Z,98438.00
2018-12-20T11:29:34.994Z,98428.00
2018-12-20T11:32:03.882Z,98425.00
2018-12-20T11:34:32.676Z,98427.00
2018-12-20T11:37:01.454Z,98427.00
2018-12-20T11:39:30.307Z,98427.00
2018-12-20T11:41:59.177Z,98418.00
2018-12-20T11:44:27.988Z,98419.00
2018-12-20T11:46:56.768Z,98405.00
2018-12-20T11:49:25.635Z,98418.00
2018-12-20T11:51:54.450Z,98423.00
2018-12-20T11:54:23.237Z,98421.00
2018-12-20T11:56:52.097Z,98408.00
2018-12-20T11:59:20.981Z,98415.00
2018-12-20T12:01:49.765Z,98415.00
2018-12-20T12:04:18.618Z,98420.00
2018-12-20T12:06:47.476Z,98419.00
2018-12-20T12:09:16.207Z,98419.00
2018-12-20T12:11:45.110Z,98421.00
2018-12-20T12:14:13.986Z,98415.00
2018-12-20T12:16:42.866Z,98416.00
2018-12-20T12:19:11.613Z,98417.00
2018-12-20T12:21:40.503Z,98415.00
2018-12-20T12:24:09.379Z,98415.00
2018-12-20T12:26:38.193Z,98415.00
2018-12-20T12:29:07.012Z,98416.00
2018-12-20T12:31:35.852Z,98419.00
2018-12-20T12:34:07.817Z,98419.00
2018-12-20T12:36:36.581Z,98416.00
2018-12-20T12:39:07.714Z,98420.00
2018-12-20T12:41:36.813Z,98413.00
2018-12-20T12:44:05.714Z,98422.00
2018-12-20T12:46:34.610Z,98417.00
2018-12-20T12:49:03.494Z,98411.00
2018-12-20T12:51:32.335Z,98400.00
2018-12-20T12:54:01.123Z,98411.00
2018-12-20T12:56:29.960Z,98417.00
2018-12-20T12:58:58.815Z,98403.00
2018-12-20T13:01:27.965Z,98408.00
2018-12-20T13:03:57.411Z,98410.00
2018-12-20T13:06:26.398Z,98407.00
2018-12-20T13:08:55.237Z,98413.00
2018-12-20T13:11:24.057Z,98412.00
2018-12-20T13:13:52.961Z,98406.00
2018-12-20T13:16:21.809Z,98409.00
2018-12-20T13:18:50.634Z,98419.00
2018-12-20T13:21:19.538Z,98415.00
2018-12-20T13:23:48.439Z,98401.00
2018-12-20T13:26:17.296Z,98411.00
2018-12-20T13:28:46.146Z,98409.00
2018-12-20T13:31:15.104Z,98405.00
2018-12-20T13:33:44.023Z,98411.00
2018-12-20T13:36:12.941Z,98408.00
2018-12-20T13:38:41.785Z,98416.00
2018-12-20T13:41:10.650Z,98403.00
2018-12-20T13:43:39.506Z,98413.00
2018-12-20T13:46:08.517Z,98402.00
2018-12-20T13:48:37.440Z,98401.00
2018-12-20T13:51:06.548Z,98404.00
2018-12-20T13:53:35.499Z,98412.00
2018-12-20T13:56:04.311Z,98417.00
2018-12-20T13:58:33.196Z,98410.00
2018-12-20T14:01:02.104Z,98419.00
2018-12-20T14:03:30.916Z,98422.00
2018-12-20T14:05:59.906Z,98411.00
2018-12-20T14:08:28.793Z,98422.00
2018-12-20T14:10:57.648Z,98428.00
2018-12-20T14:13:26.581Z,98431.00
2018-12-20T14:15:55.535Z,98434.00
2018-12-20T14:18:30.880Z,98433.00
2018-12-20T14:20:55.230Z,98447.00
2018-12-20T14:23:24.195Z,98446.00
2018-12-20T14:25:53.073Z,98444.00
2018-12-20T14:28:21.898Z,98453.00
2018-12-20T14:30:51.003Z,98466.00
2018-12-20T14:33:19.906Z,98459.00
2018-12-20T14:35:48.790Z,98465.00
2018-12-20T14:38:17.667Z,98471.00
2018-12-20T14:40:46.729Z,98472.00
2018-12-20T14:43:15.574Z,98476.00
2018-12-20T14:45:44.476Z,98485.00
2018-12-20T14:48:17.639Z,98478.00
2018-12-20T14:50:46.514Z,98477.00
2018-12-20T14:53:15.471Z,98481.00
2018-12-20T14:55:44.277Z,98477.00
2018-12-20T14:58:13.154Z,98482.00
2018-12-20T15:00:42.004Z,98476.00
2018-12-20T15:03:10.848Z,98482.00
2018-12-20T15:05:39.689Z,98478.00
2018-12-20T15:08:08.632Z,98489.00
2018-12-20T15:10:37.585Z,98473.00
2018-12-20T15:13:06.414Z,98473.00
2018-12-20T15:15:35.446Z,98492.00
2018-12-20T15:18:04.285Z,98489.00
2018-12-20T15:20:40.243Z,98486.00
2018-12-20T15:23:03.991Z,98487.00
2018-12-20T15:25:32.803Z,98481.00
2018-12-20T15:28:01.842Z,98484.00
2018-12-20T15:30:30.815Z,98483.00
2018-12-20T15:32:59.864Z,98487.00
2018-12-20T15:35:28.830Z,98477.00
2018-12-20T15:37:57.703Z,98487.00
2018-12-20T15:40:26.520Z,98496.00
2018-12-20T15:42:55.469Z,98494.00
2018-12-20T15:45:24.300Z,98503.00
2018-12-20T15:47:53.097Z,98501.00
2018-12-20T15:50:21.920Z,98490.00
2018-12-20T15:52:50.786Z,98489.00
2018-12-20T15:55:19.615Z,98499.00
2018-12-20T15:57:48.399Z,98488.00
2018-12-20T16:00:17.277Z,98500.00
2018-12-20T16:02:46.164Z,98498.00
2018-12-20T16:05:15.008Z,98504.00
2018-12-20T16:07:43.797Z,98501.00
2018-12-20T16:10:12.684Z,98511.00
2018-12-20T16:12:41.541Z,98508.00
2018-12-20T16:15:10.378Z,98507.00
2018-12-20T16:17:39.210Z,98509.00
2018-12-20T16:20:08.431Z,98516.00
2018-12-20T16:22:37.274Z,98509.00
2018-12-20T16:25:07.059Z,98513.00
2018-12-20T16:27:36.010Z,98512.00
2018-12-20T16:30:05.229Z,98514.00
2018-12-20T16:32:34.068Z,98515.00
2018-12-20T16:35:02.870Z,98515.00
2018-12-20T16:37:31.778Z,98521.00
2018-12-20T16:40:00.631Z,98522.00
2018-12-20T16:42:29.504Z,98521.00
2018-12-20T16:44:58.356Z,98523.00
2018-12-20T16:47:27.302Z,98521.00
2018-12-20T16:49:56.345Z,98523.00
2018-12-20T16:52:25.402Z,98521.00
2018-12-20T16:54:54.344Z,98527.00
2018-12-20T16:57:23.421Z,98508.00
2018-12-20T16:59:52.349Z,98522.00
2018-12-20T17:02:21.582Z,98522.00
2018-12-20T17:04:50.498Z,98539.00
2018-12-20T17:07:19.452Z,98526.00
2018-12-20T17:09:48.312Z,98523.00
2018-12-20T17:12:17.090Z,98528.00
2018-12-20T17:14:46.089Z,98530.00
2018-12-20T17:17:14.943Z,98527.00
2018-12-20T17:19:44.148Z,98524.00
2018-12-20T17:22:13.172Z,98527.00
2018-12-20T17:24:42.119Z,98539.00
2018-12-20T17:27:11.269Z,98537.00
2018-12-20T17:29:40.181Z,98527.00
2018-12-20T17:32:09.117Z,98524.00
2018-12-20T17:34:37.995Z,98529.00
2018-12-20T17:37:06.931Z,98524.00
2018-12-20T17:39:35.805Z,98527.00
2018-12-20T17:42:04.726Z,98527.00
2018-12-20T17:44:33.621Z,98526.00
2018-12-20T17:47:02.486Z,98528.00
2018-12-20T17:49:31.321Z,98534.00
2018-12-20T17:52:00.210Z,98539.00
2018-12-20T17:54:29.250Z,98546.00
2018-12-20T17:56:58.083Z,98542.00
2018-12-20T17:59:26.971Z,98540.00
2018-12-20T18:01:55.887Z,98550.00
2018-12-20T18:04:24.776Z,98544.00
2018-12-20T18:06:53.620Z,98547.00
2018-12-20T18:09:22.596Z,98541.00
2018-12-20T18:11:51.484Z,98550.00
2018-12-20T18:14:20.329Z,98552.00
2018-12-20T18:16:49.203Z,98546.00
2018-12-20T18:19:18.073Z,98551.00
2018-12-20T18:21:46.897Z,98543.00
2018-12-20T18:24:15.823Z,98551.00
2018-12-20T18:26:44.758Z,98558.00
2018-12-20T18:29:13.690Z,98556.00
2018-12-20T18:31:42.607Z,98543.00
2018-12-20T18:34:11.649Z,98549.00
2018-12-20T18:36:40.596Z,98552.00
2018-12-20T18:39:09.481Z,98559.00
2018-12-20T18:41:42.139Z,98546.00
2018-12-20T18:44:11.142Z,98561.00
2018-12-20T18:46:40.027Z,98557.00
2018-12-20T18:49:08.894Z,98559.00
2018-12-20T18:51:38.012Z,98545.00
2018-12-20T18:54:06.798Z,98555.00
2018-12-20T18:56:35.714Z,98565.00
2018-12-20T18:59:04.597Z,98567.00
2018-12-20T19:01:33.576Z,98571.00
2018-12-20T19:04:02.423Z,98572.00
2018-12-20T19:06:31.374Z,98577.00
2018-12-20T19:09:00.270Z,98570.00
2018-12-20T19:11:29.101Z,98572.00
2018-12-20T19:13:58.179Z,98572.00
2018-12-20T19:16:27.102Z,98575.00
2018-12-20T19:18:55.883Z,98572.00
2018-12-20T19:21:24.681Z,98576.00
2018-12-20T19:23:53.605Z,98579.00
2018-12-20T19:26:22.466Z,98580.00
2018-12-20T19:28:51.426Z,98580.00
2018-12-20T19:31:20.252Z,98578.00
2018-12-20T19:33:49.099Z,98567.00
2018-12-20T19:36:17.905Z,98574.00
2018-12-20T19:38:46.956Z,98578.00
2018-12-20T19:41:15.851Z,98578.00
2018-12-20T19:43:44.679Z,98580.00
2018-12-20T19:46:13.486Z,98582.00
2018-12-20T19:48:42.282Z,98592.00
2018-12-20T19:51:11.131Z,98593.00
2018-12-20T19:53:39.971Z,98590.00
2018-12-20T19:56:08.874Z,98586.00
2018-12-20T19:58:37.784Z,98587.00
2018-12-20T20:01:06.631Z,98579.00
2018-12-20T20:03:35.733Z,98570.00
2018-12-20T20:06:04.541Z,98579.00
2018-12-20T20:08:33.475Z,98576.00
2018-12-20T20:11:02.330Z,98594.00
2018-12-20T20:13:31.163Z,98588.00
2018-12-20T20:16:00.054Z,98585.00
2018-12-20T20:18:28.935Z,98585.00
2018-12-20T20:20:57.777Z,98580.00
2018-12-20T20:23:26.604Z,98575.00
2018-12-20T20:25:55.548Z,98589.00
2018-12-20T20:28:24.434Z,98585.00
2018-12-20T20:30:53.279Z,98586.00
2018-12-20T20:33:22.051Z,98585.00
2018-12-20T20:35:50.951Z,98590.00
2018-12-20T20:38:19.795Z,98586.00
2018-12-20T20:40:48.595Z,98586.00
2018-12-20T20:43:17.360Z,98587.00
2018-12-20T20:45:46.285Z,98589.00
2018-12-20T20:48:15.132Z,98590.00
2018-12-20T20:50:43.974Z,98602.00
2018-12-20T20:53:12.865Z,98590.00
2018-12-20T20:55:41.753Z,98589.00
2018-12-20T20:58:10.583Z,98580.00
2018-12-20T21:00:39.443Z,98582.00
2018-12-20T21:03:08.322Z,98583.00
2018-12-20T21:05:37.362Z,98590.00
2018-12-20T21:08:06.176Z,98579.00
2018-12-20T21:10:35.060Z,98570.00
2018-12-20T21:13:03.930Z,98571.00
2018-12-20T21:15:32.728Z,98581.00
2018-12-20T21:18:01.453Z,98586.00
2018-12-20T21:20:30.834Z,98583.00
2018-12-20T21:23:00.146Z,98586.00
2018-12-20T21:25:28.970Z,98584.00
2018-12-20T21:27:57.850Z,98591.00
2018-12-20T21:30:26.730Z,98579.00
2018-12-20T21:32:55.563Z,98580.00
2018-12-20T21:35:24.418Z,98580.00
2018-12-20T21:37:53.261Z,98585.00
2018-12-20T21:40:22.133Z,98589.00
2018-12-20T21:42:50.977Z,98584.00
2018-12-20T21:45:19.768Z,98591.00
2018-12-20T21:47:48.673Z,98597.00
2018-12-20T21:50:17.476Z,98604.00
2018-12-20T21:52:46.320Z,98604.00
2018-12-20T21:55:15.127Z,98580.00
2018-12-20T21:57:44.139Z,98595.00
2018-12-20T22:00:12.971Z,98589.00
2018-12-20T22:02:41.786Z,98581.00
2018-12-20T22:05:10.667Z,98580.00
2018-12-20T22:07:39.514Z,98590.00
2018-12-20T22:10:08.733Z,98588.00
2018-12-20T22:12:37.547Z,98600.00
2018-12-20T22:15:06.473Z,98581.00
2018-12-20T22:17:35.297Z,98586.00
2018-12-20T22:20:04.281Z,98593.00
2018-12-20T22:22:33.091Z,98589.00
2018-12-20T22:25:01.966Z,98581.00
2018-12-20T22:27:30.822Z,98580.00
2018-12-20T22:29:59.637Z,98589.00
2018-12-20T22:32:28.540Z,98588.00
2018-12-20T22:34:57.411Z,98600.00
2018-12-20T22:37:26.221Z,98594.00
2018-12-20T22:39:55.012Z,98598.00
2018-12-20T22:42:23.969Z,98594.00
2018-12-20T22:44:52.818Z,98597.00
2018-12-20T22:47:21.622Z,98590.00
2018-12-20T22:49:50.514Z,98591.00
2018-12-20T22:52:19.387Z,98588.00
2018-12-20T22:54:48.259Z,98588.00
2018-12-20T22:57:17.060Z,98587.00
2018-12-20T22:59:45.914Z,98589.00
2018-12-20T23:02:18.217Z,98594.00
2018-12-20T23:04:45.697Z,98594.00
2018-12-20T23:07:14.525Z,98592.00
2018-12-20T23:09:43.413Z,98584.00
2018-12-20T23:12:12.291Z,98591.00
2018-12-20T23:14:41.106Z,98573.00
2018-12-20T23:17:09.971Z,98572.00
2018-12-20T23:19:38.875Z,98579.00
2018-12-20T23:22:07.728Z,98573.00
2018-12-20T23:24:36.544Z,98573.00
2018-12-20T23:27:05.409Z,98573.00
2018-12-20T23:29:34.283Z,98571.00
2018-12-20T23:32:03.077Z,98582.00
2018-12-20T23:34:31.984Z,98570.00
2018-12-20T23:37:00.850Z,98587.00
2018-12-20T23:39:29.653Z,98577.00
2018-12-20T23:41:58.454Z,98576.00
2018-12-20T23:44:27.243Z,98581.00
2018-12-20T23:46:56.110Z,98577.00
2018-12-20T23:49:24.935Z,98562.00
2018-12-20T23:51:53.752Z,98567.00
2018-12-20T23:54:22.611Z,98563.00
2018-12-20T23:56:51.428Z,98553.00
2018-12-20T23:59:20.245Z,98556.00
